sensor_id;sensor_type;location;lat;lon;timestamp;pressure;altitude;pressure_sealevel;temperature;humidity
79127;BME280;68528;48.814;8.904;2023-06-10T00:00:46;96043.84;;;14.79;64.08
79127;BME280;68528;48.814;8.904;2023-06-10T00:03:11;96038.31;;;14.89;63.97
79127;BME280;68528;48.814;8.904;2023-06-10T00:05:38;96040.59;;;15.02;63.59
79127;BME280;68528;48.814;8.904;2023-06-10T00:08:04;96044.13;;;15.09;63.42
79127;BME280;68528;48.814;8.904;2023-06-10T00:10:36;96047.69;;;15.06;63.90
79127;BME280;68528;48.814;8.904;2023-06-10T00:13:16;96037.50;;;14.92;63.97
79127;BME280;68528;48.814;8.904;2023-06-10T00:16:07;96033.47;;;15.11;64.34
79127;BME280;68528;48.814;8.904;2023-06-10T00:18:33;96042.06;;;15.27;62.96
79127;BME280;68528;48.814;8.904;2023-06-10T00:21:02;96040.56;;;15.12;63.74
79127;BME280;68528;48.814;8.904;2023-06-10T00:23:29;96038.47;;;15.37;62.92
79127;BME280;68528;48.814;8.904;2023-06-10T00:25:58;96041.81;;;15.69;61.80
79127;BME280;68528;48.814;8.904;2023-06-10T00:28:23;96044.94;;;15.75;61.73
79127;BME280;68528;48.814;8.904;2023-06-10T00:30:51;96031.81;;;15.90;60.98
79127;BME280;68528;48.814;8.904;2023-06-10T00:33:18;96028.25;;;15.89;61.03
79127;BME280;68528;48.814;8.904;2023-06-10T00:35:44;96040.69;;;16.11;60.69
79127;BME280;68528;48.814;8.904;2023-06-10T00:38:09;96039.81;;;16.18;60.80
79127;BME280;68528;48.814;8.904;2023-06-10T00:40:39;96042.91;;;16.27;60.59
79127;BME280;68528;48.814;8.904;2023-06-10T00:43:06;96038.50;;;16.33;60.03
79127;BME280;68528;48.814;8.904;2023-06-10T00:45:33;96042.22;;;16.16;60.71
79127;BME280;68528;48.814;8.904;2023-06-10T00:47:59;96044.59;;;16.17;60.84
79127;BME280;68528;48.814;8.904;2023-06-10T00:50:51;96039.81;;;16.18;60.85
79127;BME280;68528;48.814;8.904;2023-06-10T00:57:01;96038.63;;;16.19;60.87
79127;BME280;68528;48.814;8.904;2023-06-10T00:59:29;96038.78;;;16.05;61.64
79127;BME280;68528;48.814;8.904;2023-06-10T01:01:56;96038.41;;;16.03;61.30
79127;BME280;68528;48.814;8.904;2023-06-10T01:04:22;96047.81;;;16.05;61.46
79127;BME280;68528;48.814;8.904;2023-06-10T01:13:00;96033.91;;;15.75;63.08
79127;BME280;68528;48.814;8.904;2023-06-10T01:15:30;96029.97;;;15.73;62.73
79127;BME280;68528;48.814;8.904;2023-06-10T01:17:58;96026.88;;;15.63;63.52
79127;BME280;68528;48.814;8.904;2023-06-10T01:20:28;96041.53;;;15.53;63.58
79127;BME280;68528;48.814;8.904;2023-06-10T01:22:54;96032.13;;;15.47;63.71
79127;BME280;68528;48.814;8.904;2023-06-10T01:25:21;96028.63;;;15.29;64.92
79127;BME280;68528;48.814;8.904;2023-06-10T01:28:34;96036.91;;;15.29;64.71
79127;BME280;68528;48.814;8.904;2023-06-10T01:33:35;96009.09;;;15.03;64.69
79127;BME280;68528;48.814;8.904;2023-06-10T01:36:04;96034.31;;;15.05;65.83
79127;BME280;68528;48.814;8.904;2023-06-10T01:38:34;96028.84;;;14.94;66.68
79127;BME280;68528;48.814;8.904;2023-06-10T01:41:03;96039.13;;;14.83;67.18
79127;BME280;68528;48.814;8.904;2023-06-10T01:43:28;96037.56;;;14.75;66.47
79127;BME280;68528;48.814;8.904;2023-06-10T01:45:59;96032.91;;;14.58;67.44
79127;BME280;68528;48.814;8.904;2023-06-10T01:48:50;96029.00;;;14.45;67.35
79127;BME280;68528;48.814;8.904;2023-06-10T01:51:15;96019.94;;;14.51;67.45
79127;BME280;68528;48.814;8.904;2023-06-10T01:53:41;96024.69;;;14.44;68.10
79127;BME280;68528;48.814;8.904;2023-06-10T01:56:06;96038.06;;;14.45;68.81
79127;BME280;68528;48.814;8.904;2023-06-10T01:58:31;96042.00;;;14.44;67.66
79127;BME280;68528;48.814;8.904;2023-06-10T02:00:57;96029.84;;;14.13;68.50
79127;BME280;68528;48.814;8.904;2023-06-10T02:03:22;96052.25;;;14.15;68.45
79127;BME280;68528;48.814;8.904;2023-06-10T02:05:49;96030.25;;;14.01;69.35
79127;BME280;68528;48.814;8.904;2023-06-10T02:08:17;96040.88;;;13.92;70.03
79127;BME280;68528;48.814;8.904;2023-06-10T02:10:44;96044.81;;;13.84;70.02
79127;BME280;68528;48.814;8.904;2023-06-10T02:13:09;96055.81;;;13.77;70.29
79127;BME280;68528;48.814;8.904;2023-06-10T02:15:34;96058.97;;;13.83;70.10
79127;BME280;68528;48.814;8.904;2023-06-10T02:18:00;96055.44;;;13.89;69.60
79127;BME280;68528;48.814;8.904;2023-06-10T02:20:29;96054.25;;;13.76;70.84
79127;BME280;68528;48.814;8.904;2023-06-10T02:22:59;96064.84;;;13.60;71.14
79127;BME280;68528;48.814;8.904;2023-06-10T02:25:26;96049.09;;;13.36;72.43
79127;BME280;68528;48.814;8.904;2023-06-10T02:27:51;96064.06;;;13.53;71.25
79127;BME280;68528;48.814;8.904;2023-06-10T02:30:16;96047.91;;;13.33;72.13
79127;BME280;68528;48.814;8.904;2023-06-10T02:32:42;96052.22;;;13.31;72.32
79127;BME280;68528;48.814;8.904;2023-06-10T02:35:07;96043.94;;;13.17;72.45
79127;BME280;68528;48.814;8.904;2023-06-10T02:37:33;96044.31;;;13.12;72.63
79127;BME280;68528;48.814;8.904;2023-06-10T02:40:19;96065.16;;;13.13;73.20
79127;BME280;68528;48.814;8.904;2023-06-10T02:42:45;96073.69;;;12.97;73.69
79127;BME280;68528;48.814;8.904;2023-06-10T02:45:10;96065.84;;;12.96;73.33
79127;BME280;68528;48.814;8.904;2023-06-10T02:47:37;96033.16;;;12.70;73.79
79127;BME280;68528;48.814;8.904;2023-06-10T02:50:03;96067.34;;;12.83;73.76
79127;BME280;68528;48.814;8.904;2023-06-10T02:52:31;96077.53;;;12.79;73.91
79127;BME280;68528;48.814;8.904;2023-06-10T02:54:57;96061.81;;;12.69;74.27
79127;BME280;68528;48.814;8.904;2023-06-10T02:57:22;96043.72;;;12.60;74.32
79127;BME280;68528;48.814;8.904;2023-06-10T03:00:12;96065.78;;;12.82;73.67
79127;BME280;68528;48.814;8.904;2023-06-10T03:02:58;96068.94;;;12.87;73.53
79127;BME280;68528;48.814;8.904;2023-06-10T03:05:28;96057.13;;;12.73;73.53
79127;BME280;68528;48.814;8.904;2023-06-10T03:07:53;96066.97;;;12.81;73.12
79127;BME280;68528;48.814;8.904;2023-06-10T03:10:19;96069.19;;;12.54;74.89
79127;BME280;68528;48.814;8.904;2023-06-10T03:12:47;96065.59;;;12.46;74.29
79127;BME280;68528;48.814;8.904;2023-06-10T03:15:15;96075.16;;;12.67;74.17
79127;BME280;68528;48.814;8.904;2023-06-10T03:18:00;96082.88;;;12.47;75.03
79127;BME280;68528;48.814;8.904;2023-06-10T03:20:34;96091.47;;;12.42;75.16
79127;BME280;68528;48.814;8.904;2023-06-10T03:23:04;96081.22;;;12.32;76.05
79127;BME280;68528;48.814;8.904;2023-06-10T03:25:32;96093.00;;;12.36;76.32
79127;BME280;68528;48.814;8.904;2023-06-10T03:28:00;96083.56;;;12.33;75.12
79127;BME280;68528;48.814;8.904;2023-06-10T03:30:29;96065.44;;;12.18;75.21
79127;BME280;68528;48.814;8.904;2023-06-10T03:32:57;96087.44;;;12.22;75.50
79127;BME280;68528;48.814;8.904;2023-06-10T03:35:41;96096.06;;;12.20;76.20
79127;BME280;68528;48.814;8.904;2023-06-10T03:38:08;96079.59;;;12.24;74.76
79127;BME280;68528;48.814;8.904;2023-06-10T03:40:33;96098.00;;;12.16;75.90
79127;BME280;68528;48.814;8.904;2023-06-10T03:43:01;96100.66;;;12.09;76.01
79127;BME280;68528;48.814;8.904;2023-06-10T03:45:26;96103.75;;;12.04;76.40
79127;BME280;68528;48.814;8.904;2023-06-10T03:47:53;96100.66;;;12.09;76.37
79127;BME280;68528;48.814;8.904;2023-06-10T03:50:19;96093.25;;;12.13;75.66
79127;BME280;68528;48.814;8.904;2023-06-10T03:53:06;96105.44;;;12.19;75.53
79127;BME280;68528;48.814;8.904;2023-06-10T03:55:43;96092.03;;;12.11;75.87
79127;BME280;68528;48.814;8.904;2023-06-10T03:58:35;96103.09;;;12.21;76.46
79127;BME280;68528;48.814;8.904;2023-06-10T04:01:00;96106.09;;;12.56;75.77
79127;BME280;68528;48.814;8.904;2023-06-10T04:03:31;96105.44;;;12.84;74.57
79127;BME280;68528;48.814;8.904;2023-06-10T04:06:17;96105.28;;;13.42;72.86
79127;BME280;68528;48.814;8.904;2023-06-10T04:08:47;96091.13;;;13.44;72.20
79127;BME280;68528;48.814;8.904;2023-06-10T04:11:15;96104.56;;;13.66;71.92
79127;BME280;68528;48.814;8.904;2023-06-10T04:13:50;96101.41;;;13.71;71.30
79127;BME280;68528;48.814;8.904;2023-06-10T04:16:15;96103.78;;;13.83;71.17
79127;BME280;68528;48.814;8.904;2023-06-10T04:18:55;96103.00;;;13.97;70.74
79127;BME280;68528;48.814;8.904;2023-06-10T04:21:41;96099.09;;;13.87;71.35
79127;BME280;68528;48.814;8.904;2023-06-10T04:24:12;96116.78;;;13.93;71.49
79127;BME280;68528;48.814;8.904;2023-06-10T04:26:40;96128.19;;;13.95;71.77
79127;BME280;68528;48.814;8.904;2023-06-10T04:29:34;96113.25;;;14.00;71.75
79127;BME280;68528;48.814;8.904;2023-06-10T04:35:40;96115.59;;;13.94;72.28
79127;BME280;68528;48.814;8.904;2023-06-10T04:38:06;96112.44;;;14.10;71.40
79127;BME280;68528;48.814;8.904;2023-06-10T04:40:54;96120.31;;;14.01;73.17
79127;BME280;68528;48.814;8.904;2023-06-10T04:43:25;96103.00;;;14.00;72.14
79127;BME280;68528;48.814;8.904;2023-06-10T04:45:58;96099.47;;;14.10;72.59
79127;BME280;68528;48.814;8.904;2023-06-10T04:48:23;96121.09;;;14.47;71.29
79127;BME280;68528;48.814;8.904;2023-06-10T04:51:07;96092.38;;;14.45;70.71
79127;BME280;68528;48.814;8.904;2023-06-10T04:53:54;96091.53;;;14.69;69.74
79127;BME280;68528;48.814;8.904;2023-06-10T04:56:22;96118.59;;;15.09;68.78
79127;BME280;68528;48.814;8.904;2023-06-10T04:58:48;96096.78;;;15.36;67.13
79127;BME280;68528;48.814;8.904;2023-06-10T05:01:24;96114.81;;;15.61;66.58
79127;BME280;68528;48.814;8.904;2023-06-10T05:04:06;96102.59;;;15.62;66.12
79127;BME280;68528;48.814;8.904;2023-06-10T05:10:06;96112.97;;;16.03;65.54
79127;BME280;68528;48.814;8.904;2023-06-10T05:12:37;96112.44;;;16.22;64.09
79127;BME280;68528;48.814;8.904;2023-06-10T05:15:05;96106.91;;;16.22;64.47
79127;BME280;68528;48.814;8.904;2023-06-10T05:17:33;96120.06;;;16.48;63.40
79127;BME280;68528;48.814;8.904;2023-06-10T05:20:05;96107.03;;;16.56;63.48
79127;BME280;68528;48.814;8.904;2023-06-10T05:22:39;96121.84;;;17.09;61.66
79127;BME280;68528;48.814;8.904;2023-06-10T05:25:07;96115.91;;;17.41;60.66
79127;BME280;68528;48.814;8.904;2023-06-10T05:27:39;96116.72;;;17.72;60.98
79127;BME280;68528;48.814;8.904;2023-06-10T05:30:09;96106.31;;;18.06;59.30
79127;BME280;68528;48.814;8.904;2023-06-10T05:32:44;96125.03;;;18.71;57.50
79127;BME280;68528;48.814;8.904;2023-06-10T05:35:12;96119.63;;;18.88;56.80
79127;BME280;68528;48.814;8.904;2023-06-10T05:37:44;96124.47;;;19.23;55.97
79127;BME280;68528;48.814;8.904;2023-06-10T05:40:09;96131.34;;;19.58;55.25
79127;BME280;68528;48.814;8.904;2023-06-10T05:42:51;96123.88;;;20.06;53.71
79127;BME280;68528;48.814;8.904;2023-06-10T05:45:18;96134.47;;;20.47;52.80
79127;BME280;68528;48.814;8.904;2023-06-10T05:48:05;96123.94;;;20.71;54.21
79127;BME280;68528;48.814;8.904;2023-06-10T05:50:37;96132.25;;;21.32;50.57
79127;BME280;68528;48.814;8.904;2023-06-10T05:53:08;96124.88;;;21.54;49.96
79127;BME280;68528;48.814;8.904;2023-06-10T05:55:48;96135.47;;;22.00;48.90
79127;BME280;68528;48.814;8.904;2023-06-10T05:58:17;96146.03;;;21.93;49.29
79127;BME280;68528;48.814;8.904;2023-06-10T06:00:45;96142.25;;;22.12;48.79
79127;BME280;68528;48.814;8.904;2023-06-10T06:03:11;96149.91;;;21.41;49.98
79127;BME280;68528;48.814;8.904;2023-06-10T06:09:18;96144.44;;;23.39;45.51
79127;BME280;68528;48.814;8.904;2023-06-10T06:11:47;96135.09;;;23.55;45.41
79127;BME280;68528;48.814;8.904;2023-06-10T06:14:15;96137.75;;;22.90;46.64
79127;BME280;68528;48.814;8.904;2023-06-10T06:16:40;96133.69;;;23.03;45.67
79127;BME280;68528;48.814;8.904;2023-06-10T06:19:06;96141.19;;;23.62;45.96
79127;BME280;68528;48.814;8.904;2023-06-10T06:21:38;96152.59;;;24.20;44.57
79127;BME280;68528;48.814;8.904;2023-06-10T06:24:06;96130.47;;;23.39;45.24
79127;BME280;68528;48.814;8.904;2023-06-10T06:26:38;96151.06;;;23.20;47.63
79127;BME280;68528;48.814;8.904;2023-06-10T06:29:09;96138.78;;;24.26;44.38
79127;BME280;68528;48.814;8.904;2023-06-10T06:31:34;96147.81;;;23.56;44.48
79127;BME280;68528;48.814;8.904;2023-06-10T06:34:02;96151.91;;;24.86;42.47
79127;BME280;68528;48.814;8.904;2023-06-10T06:36:28;96147.59;;;25.13;42.15
79127;BME280;68528;48.814;8.904;2023-06-10T06:38:59;96143.53;;;24.96;41.09
79127;BME280;68528;48.814;8.904;2023-06-10T06:41:30;96146.06;;;25.21;40.92
79127;BME280;68528;48.814;8.904;2023-06-10T06:43:57;96143.50;;;24.86;40.29
79127;BME280;68528;48.814;8.904;2023-06-10T06:47:02;96153.81;;;24.50;42.39
79127;BME280;68528;48.814;8.904;2023-06-10T06:49:30;96143.72;;;25.19;40.82
79127;BME280;68528;48.814;8.904;2023-06-10T06:51:55;96155.44;;;25.54;39.81
79127;BME280;68528;48.814;8.904;2023-06-10T06:54:21;96160.06;;;25.93;40.78
79127;BME280;68528;48.814;8.904;2023-06-10T06:59:53;96161.66;;;25.76;39.99
79127;BME280;68528;48.814;8.904;2023-06-10T07:02:21;96160.28;;;24.07;43.23
79127;BME280;68528;48.814;8.904;2023-06-10T07:04:50;96151.97;;;25.05;41.88
79127;BME280;68528;48.814;8.904;2023-06-10T07:07:15;96161.78;;;25.73;39.71
79127;BME280;68528;48.814;8.904;2023-06-10T07:09:43;96145.59;;;25.77;38.80
79127;BME280;68528;48.814;8.904;2023-06-10T07:12:09;96154.81;;;25.50;40.50
79127;BME280;68528;48.814;8.904;2023-06-10T07:14:35;96166.66;;;25.63;39.85
79127;BME280;68528;48.814;8.904;2023-06-10T07:17:36;96176.44;;;25.40;40.24
79127;BME280;68528;48.814;8.904;2023-06-10T07:20:23;96142.34;;;25.69;40.66
79127;BME280;68528;48.814;8.904;2023-06-10T07:23:12;96134.31;;;26.13;38.86
79127;BME280;68528;48.814;8.904;2023-06-10T07:25:41;96132.31;;;27.11;36.34
79127;BME280;68528;48.814;8.904;2023-06-10T07:28:24;96128.16;;;26.98;36.10
79127;BME280;68528;48.814;8.904;2023-06-10T07:30:50;96111.66;;;26.25;37.42
79127;BME280;68528;48.814;8.904;2023-06-10T07:33:20;96131.66;;;26.18;41.41
79127;BME280;68528;48.814;8.904;2023-06-10T07:35:45;96158.97;;;26.92;37.55
79127;BME280;68528;48.814;8.904;2023-06-10T07:38:11;96159.75;;;27.40;37.86
79127;BME280;68528;48.814;8.904;2023-06-10T07:40:42;96166.16;;;26.52;36.65
79127;BME280;68528;48.814;8.904;2023-06-10T07:43:22;96155.31;;;26.68;37.68
79127;BME280;68528;48.814;8.904;2023-06-10T07:45:47;96152.00;;;26.70;36.49
79127;BME280;68528;48.814;8.904;2023-06-10T07:48:15;96168.56;;;26.68;37.49
79127;BME280;68528;48.814;8.904;2023-06-10T07:50:40;96164.81;;;27.27;38.03
79127;BME280;68528;48.814;8.904;2023-06-10T07:53:06;96164.13;;;25.92;39.62
79127;BME280;68528;48.814;8.904;2023-06-10T07:55:31;96150.28;;;27.52;37.89
79127;BME280;68528;48.814;8.904;2023-06-10T07:57:57;96153.00;;;26.07;37.82
79127;BME280;68528;48.814;8.904;2023-06-10T08:00:23;96163.94;;;26.05;41.08
79127;BME280;68528;48.814;8.904;2023-06-10T08:02:49;96166.47;;;25.66;41.26
79127;BME280;68528;48.814;8.904;2023-06-10T08:05:15;96157.16;;;25.42;39.58
79127;BME280;68528;48.814;8.904;2023-06-10T08:07:42;96158.06;;;25.66;40.34
79127;BME280;68528;48.814;8.904;2023-06-10T08:13:37;96166.59;;;25.09;39.56
79127;BME280;68528;48.814;8.904;2023-06-10T08:16:02;96143.78;;;26.33;37.53
79127;BME280;68528;48.814;8.904;2023-06-10T08:18:28;96152.91;;;25.29;40.74
79127;BME280;68528;48.814;8.904;2023-06-10T08:20:53;96169.41;;;26.92;38.00
79127;BME280;68528;48.814;8.904;2023-06-10T08:23:21;96154.19;;;25.55;39.48
79127;BME280;68528;48.814;8.904;2023-06-10T08:25:46;96164.50;;;26.36;38.72
79127;BME280;68528;48.814;8.904;2023-06-10T08:28:41;96152.28;;;25.25;40.10
79127;BME280;68528;48.814;8.904;2023-06-10T08:31:11;96147.59;;;27.58;36.32
79127;BME280;68528;48.814;8.904;2023-06-10T08:33:37;96165.22;;;25.40;41.38
79127;BME280;68528;48.814;8.904;2023-06-10T08:36:02;96142.16;;;27.07;38.49
79127;BME280;68528;48.814;8.904;2023-06-10T08:38:29;96152.38;;;26.63;38.92
79127;BME280;68528;48.814;8.904;2023-06-10T08:40:56;96100.63;;;26.55;37.67
79127;BME280;68528;48.814;8.904;2023-06-10T08:43:33;96151.09;;;27.82;36.58
79127;BME280;68528;48.814;8.904;2023-06-10T08:46:00;96153.34;;;27.40;37.28
79127;BME280;68528;48.814;8.904;2023-06-10T08:48:29;96155.41;;;28.65;34.72
79127;BME280;68528;48.814;8.904;2023-06-10T08:51:06;96130.19;;;28.27;35.08
79127;BME280;68528;48.814;8.904;2023-06-10T08:53:48;96144.13;;;26.17;38.98
79127;BME280;68528;48.814;8.904;2023-06-10T08:59:23;96109.06;;;26.04;38.56
79127;BME280;68528;48.814;8.904;2023-06-10T09:02:07;96171.63;;;26.88;36.96
79127;BME280;68528;48.814;8.904;2023-06-10T09:04:36;96174.97;;;27.86;34.31
79127;BME280;68528;48.814;8.904;2023-06-10T09:07:02;96133.84;;;27.74;36.13
79127;BME280;68528;48.814;8.904;2023-06-10T09:09:32;96161.47;;;27.14;37.74
79127;BME280;68528;48.814;8.904;2023-06-10T09:12:00;96164.72;;;27.83;35.36
79127;BME280;68528;48.814;8.904;2023-06-10T09:14:25;96159.56;;;26.96;37.30
79127;BME280;68528;48.814;8.904;2023-06-10T09:16:51;96152.81;;;27.03;37.03
79127;BME280;68528;48.814;8.904;2023-06-10T09:19:16;96153.47;;;28.42;34.30
79127;BME280;68528;48.814;8.904;2023-06-10T09:21:42;96162.22;;;26.16;39.00
79127;BME280;68528;48.814;8.904;2023-06-10T09:24:10;96159.06;;;26.74;36.96
79127;BME280;68528;48.814;8.904;2023-06-10T09:26:36;96155.59;;;26.79;37.77
79127;BME280;68528;48.814;8.904;2023-06-10T09:29:06;96160.22;;;27.62;36.26
79127;BME280;68528;48.814;8.904;2023-06-10T09:31:37;96161.16;;;25.23;40.30
79127;BME280;68528;48.814;8.904;2023-06-10T09:34:14;96163.16;;;26.22;38.26
79127;BME280;68528;48.814;8.904;2023-06-10T09:36:47;96140.03;;;26.69;38.76
79127;BME280;68528;48.814;8.904;2023-06-10T09:39:17;96147.88;;;27.98;35.90
79127;BME280;68528;48.814;8.904;2023-06-10T09:41:43;96158.81;;;28.40;34.02
79127;BME280;68528;48.814;8.904;2023-06-10T09:46:39;96144.53;;;25.74;39.23
79127;BME280;68528;48.814;8.904;2023-06-10T09:49:05;96150.75;;;25.60;39.89
79127;BME280;68528;48.814;8.904;2023-06-10T09:51:31;96151.63;;;26.11;39.13
79127;BME280;68528;48.814;8.904;2023-06-10T09:53:57;96145.69;;;26.00;41.70
79127;BME280;68528;48.814;8.904;2023-06-10T09:56:35;96140.97;;;28.57;35.21
79127;BME280;68528;48.814;8.904;2023-06-10T09:59:02;96143.22;;;26.86;38.54
79127;BME280;68528;48.814;8.904;2023-06-10T10:01:31;96146.50;;;27.32;39.27
79127;BME280;68528;48.814;8.904;2023-06-10T10:03:57;96141.31;;;26.17;40.56
79127;BME280;68528;48.814;8.904;2023-06-10T10:06:22;96124.59;;;26.74;38.80
79127;BME280;68528;48.814;8.904;2023-06-10T10:08:50;96140.19;;;26.66;39.09
79127;BME280;68528;48.814;8.904;2023-06-10T10:11:19;96134.13;;;24.01;43.50
79127;BME280;68528;48.814;8.904;2023-06-10T10:13:48;96152.41;;;23.93;44.00
79127;BME280;68528;48.814;8.904;2023-06-10T10:16:31;96143.56;;;25.05;42.48
79127;BME280;68528;48.814;8.904;2023-06-10T10:19:07;96136.50;;;26.09;39.85
79127;BME280;68528;48.814;8.904;2023-06-10T10:21:38;96130.19;;;26.32;39.21
79127;BME280;68528;48.814;8.904;2023-06-10T10:24:32;96113.38;;;25.63;40.52
79127;BME280;68528;48.814;8.904;2023-06-10T10:27:06;96116.16;;;26.74;39.13
79127;BME280;68528;48.814;8.904;2023-06-10T10:29:42;96116.50;;;26.58;37.53
79127;BME280;68528;48.814;8.904;2023-06-10T10:32:11;96130.00;;;29.14;37.00
79127;BME280;68528;48.814;8.904;2023-06-10T10:34:56;96135.75;;;26.83;36.91
79127;BME280;68528;48.814;8.904;2023-06-10T10:37:28;96125.16;;;27.25;37.23
79127;BME280;68528;48.814;8.904;2023-06-10T10:39:54;96126.13;;;27.22;37.98
79127;BME280;68528;48.814;8.904;2023-06-10T10:42:20;96132.84;;;26.35;40.90
79127;BME280;68528;48.814;8.904;2023-06-10T10:44:49;96125.84;;;27.20;38.11
79127;BME280;68528;48.814;8.904;2023-06-10T10:47:15;96115.28;;;27.30;39.32
79127;BME280;68528;48.814;8.904;2023-06-10T10:49:43;96123.13;;;28.51;34.64
79127;BME280;68528;48.814;8.904;2023-06-10T10:52:13;96126.13;;;25.73;39.14
79127;BME280;68528;48.814;8.904;2023-06-10T10:54:43;96113.22;;;27.39;36.49
79127;BME280;68528;48.814;8.904;2023-06-10T11:02:44;96120.47;;;28.57;33.31
79127;BME280;68528;48.814;8.904;2023-06-10T11:05:13;96118.53;;;28.83;31.51
79127;BME280;68528;48.814;8.904;2023-06-10T11:07:39;96108.94;;;28.75;31.05
79127;BME280;68528;48.814;8.904;2023-06-10T11:10:10;96096.31;;;27.92;33.12
79127;BME280;68528;48.814;8.904;2023-06-10T11:15:13;96092.00;;;27.29;36.17
79127;BME280;68528;48.814;8.904;2023-06-10T11:20:50;96107.84;;;27.94;34.79
79127;BME280;68528;48.814;8.904;2023-06-10T11:26:18;96113.78;;;28.11;34.30
79127;BME280;68528;48.814;8.904;2023-06-10T11:31:37;96104.38;;;28.14;35.39
79127;BME280;68528;48.814;8.904;2023-06-10T11:34:07;96110.75;;;29.99;30.24
79127;BME280;68528;48.814;8.904;2023-06-10T11:36:34;96114.25;;;28.38;32.42
79127;BME280;68528;48.814;8.904;2023-06-10T11:39:06;96095.56;;;28.90;32.04
79127;BME280;68528;48.814;8.904;2023-06-10T11:41:33;96102.03;;;29.77;29.12
79127;BME280;68528;48.814;8.904;2023-06-10T11:44:10;96096.53;;;28.87;33.26
79127;BME280;68528;48.814;8.904;2023-06-10T11:46:36;96099.66;;;29.09;31.38
79127;BME280;68528;48.814;8.904;2023-06-10T11:49:08;96094.81;;;27.82;33.55
79127;BME280;68528;48.814;8.904;2023-06-10T11:51:40;96089.88;;;29.05;32.35
79127;BME280;68528;48.814;8.904;2023-06-10T11:54:08;96095.63;;;28.12;32.77
79127;BME280;68528;48.814;8.904;2023-06-10T11:56:34;96092.28;;;29.12;32.34
79127;BME280;68528;48.814;8.904;2023-06-10T11:59:07;96049.22;;;27.10;34.48
79127;BME280;68528;48.814;8.904;2023-06-10T12:01:34;96095.44;;;25.69;36.37
79127;BME280;68528;48.814;8.904;2023-06-10T12:04:08;96087.22;;;25.57;37.58
79127;BME280;68528;48.814;8.904;2023-06-10T12:06:43;96086.47;;;27.58;34.27
79127;BME280;68528;48.814;8.904;2023-06-10T12:09:19;96063.53;;;29.08;36.39
79127;BME280;68528;48.814;8.904;2023-06-10T12:11:49;96083.13;;;28.62;32.57
79127;BME280;68528;48.814;8.904;2023-06-10T12:14:15;96072.47;;;29.26;30.72
79127;BME280;68528;48.814;8.904;2023-06-10T12:16:48;96078.94;;;27.79;33.98
79127;BME280;68528;48.814;8.904;2023-06-10T12:19:13;96099.25;;;27.21;34.42
79127;BME280;68528;48.814;8.904;2023-06-10T12:21:39;96093.09;;;25.41;37.65
79127;BME280;68528;48.814;8.904;2023-06-10T12:24:09;96083.06;;;25.94;37.57
79127;BME280;68528;48.814;8.904;2023-06-10T12:26:35;96081.66;;;25.90;37.42
79127;BME280;68528;48.814;8.904;2023-06-10T12:29:12;96090.00;;;25.57;38.29
79127;BME280;68528;48.814;8.904;2023-06-10T12:35:03;96088.28;;;24.38;40.55
79127;BME280;68528;48.814;8.904;2023-06-10T12:38:03;96079.72;;;25.18;37.40
79127;BME280;68528;48.814;8.904;2023-06-10T12:40:36;96080.50;;;25.54;38.85
79127;BME280;68528;48.814;8.904;2023-06-10T12:43:02;96083.94;;;25.58;37.37
79127;BME280;68528;48.814;8.904;2023-06-10T12:45:34;96082.69;;;25.14;38.24
79127;BME280;68528;48.814;8.904;2023-06-10T12:48:31;96082.34;;;27.30;35.62
79127;BME280;68528;48.814;8.904;2023-06-10T12:51:01;96073.63;;;27.04;35.08
79127;BME280;68528;48.814;8.904;2023-06-10T12:53:32;96075.56;;;26.75;35.96
79127;BME280;68528;48.814;8.904;2023-06-10T12:55:57;96067.16;;;26.66;36.03
79127;BME280;68528;48.814;8.904;2023-06-10T12:58:24;96071.44;;;27.76;33.10
79127;BME280;68528;48.814;8.904;2023-06-10T13:00:49;96076.06;;;28.87;30.95
79127;BME280;68528;48.814;8.904;2023-06-10T13:03:20;96067.28;;;28.01;31.87
79127;BME280;68528;48.814;8.904;2023-06-10T13:05:48;96068.16;;;28.56;30.74
79127;BME280;68528;48.814;8.904;2023-06-10T13:08:14;96070.88;;;28.85;30.81
79127;BME280;68528;48.814;8.904;2023-06-10T13:10:50;96062.44;;;27.72;31.92
79127;BME280;68528;48.814;8.904;2023-06-10T13:13:16;96072.09;;;27.56;33.61
79127;BME280;68528;48.814;8.904;2023-06-10T13:15:47;96066.50;;;27.85;32.51
79127;BME280;68528;48.814;8.904;2023-06-10T13:18:15;96074.34;;;28.25;32.02
79127;BME280;68528;48.814;8.904;2023-06-10T13:20:40;96068.56;;;27.32;33.74
79127;BME280;68528;48.814;8.904;2023-06-10T13:23:05;96053.41;;;27.53;32.46
79127;BME280;68528;48.814;8.904;2023-06-10T13:25:32;96057.00;;;29.16;31.42
79127;BME280;68528;48.814;8.904;2023-06-10T13:27:58;96043.44;;;29.72;29.68
79127;BME280;68528;48.814;8.904;2023-06-10T13:30:24;96057.44;;;28.95;31.09
79127;BME280;68528;48.814;8.904;2023-06-10T13:32:50;96056.72;;;28.45;33.04
79127;BME280;68528;48.814;8.904;2023-06-10T13:35:15;96053.03;;;27.89;31.94
79127;BME280;68528;48.814;8.904;2023-06-10T13:37:42;96063.06;;;28.74;32.22
79127;BME280;68528;48.814;8.904;2023-06-10T13:40:08;96040.50;;;28.05;31.46
79127;BME280;68528;48.814;8.904;2023-06-10T13:42:35;96047.16;;;26.96;33.86
79127;BME280;68528;48.814;8.904;2023-06-10T13:45:01;96051.84;;;27.96;32.71
79127;BME280;68528;48.814;8.904;2023-06-10T13:47:27;96043.19;;;28.29;30.67
79127;BME280;68528;48.814;8.904;2023-06-10T13:49:52;96056.28;;;28.66;30.71
79127;BME280;68528;48.814;8.904;2023-06-10T13:52:17;96052.75;;;29.26;36.02
79127;BME280;68528;48.814;8.904;2023-06-10T13:54:43;96047.09;;;29.26;29.93
79127;BME280;68528;48.814;8.904;2023-06-10T13:57:08;96033.19;;;28.28;31.90
79127;BME280;68528;48.814;8.904;2023-06-10T13:59:35;96029.06;;;28.43;30.62
79127;BME280;68528;48.814;8.904;2023-06-10T14:02:03;96034.97;;;29.00;30.31
79127;BME280;68528;48.814;8.904;2023-06-10T14:04:29;96025.91;;;26.72;33.78
79127;BME280;68528;48.814;8.904;2023-06-10T14:06:55;96030.03;;;26.14;33.34
79127;BME280;68528;48.814;8.904;2023-06-10T14:09:22;96031.53;;;26.24;35.22
79127;BME280;68528;48.814;8.904;2023-06-10T14:11:48;96039.31;;;26.53;34.08